DLH1EL EDDS-EDDF
Flight info
| Callsign | DLH1EL |
|---|---|
| Flight time | 0h 27m |
| Altitude | 24000 |
| Route | ETASA4B ETASA T163 SPESA SPESA5B |
| Aircraft | A320/M-SDE2E3FGIJ1LORWXYZ/HB1 |
Departure
| Time | 2026-04-19 04:45 |
|---|---|
| Airport | Stuttgart Airport (EDDS) |
Arrival
| Time | 2026-04-19 05:12 |
|---|---|
| Airport | Frankfurt Main Airport (EDDF) |
| Time | Latitude | Longitude | Altitude | Speed | Heading |
|---|---|---|---|---|---|
| 2026-04-19 04:20 | 48.68884 | 9.19359 | 1316 ft | 0 kts | 344° |
| 2026-04-19 04:35 | 48.68880 | 9.19361 | 1315 ft | 3 kts | 344° |
| 2026-04-19 04:35 | 48.68854 | 9.19372 | 1315 ft | 4 kts | 344° |
| 2026-04-19 04:36 | 48.68832 | 9.19382 | 1314 ft | 4 kts | 352° |
| 2026-04-19 04:36 | 48.68810 | 9.19375 | 1314 ft | 4 kts | 51° |
| 2026-04-19 04:36 | 48.68799 | 9.19343 | 1314 ft | 2 kts | 74° |
| 2026-04-19 04:36 | 48.68799 | 9.19341 | 1314 ft | 0 kts | 74° |
| 2026-04-19 04:38 | 48.68805 | 9.19372 | 1314 ft | 8 kts | 74° |
| 2026-04-19 04:39 | 48.68831 | 9.19512 | 1311 ft | 18 kts | 74° |
| 2026-04-19 04:39 | 48.68856 | 9.19642 | 1309 ft | 18 kts | 74° |
| 2026-04-19 04:39 | 48.68903 | 9.19839 | 1304 ft | 22 kts | 60° |
| 2026-04-19 04:39 | 48.68982 | 9.20037 | 1302 ft | 19 kts | 60° |
| 2026-04-19 04:40 | 48.69028 | 9.20251 | 1296 ft | 24 kts | 74° |
| 2026-04-19 04:40 | 48.69061 | 9.20438 | 1289 ft | 12 kts | 87° |
| 2026-04-19 04:40 | 48.69002 | 9.20564 | 1283 ft | 18 kts | 135° |
| 2026-04-19 04:40 | 48.68966 | 9.20707 | 1279 ft | 18 kts | 73° |
| 2026-04-19 04:41 | 48.69005 | 9.20911 | 1273 ft | 23 kts | 74° |
| 2026-04-19 04:41 | 48.69051 | 9.21164 | 1269 ft | 27 kts | 73° |
| 2026-04-19 04:41 | 48.69107 | 9.21453 | 1265 ft | 29 kts | 74° |
| 2026-04-19 04:41 | 48.69164 | 9.21751 | 1263 ft | 30 kts | 73° |
| 2026-04-19 04:42 | 48.69219 | 9.22046 | 1253 ft | 30 kts | 73° |
| 2026-04-19 04:42 | 48.69276 | 9.22344 | 1239 ft | 30 kts | 73° |
| 2026-04-19 04:42 | 48.69336 | 9.22658 | 1233 ft | 31 kts | 74° |
| 2026-04-19 04:42 | 48.69396 | 9.22970 | 1226 ft | 32 kts | 74° |
| 2026-04-19 04:43 | 48.69456 | 9.23287 | 1220 ft | 30 kts | 75° |
| 2026-04-19 04:43 | 48.69514 | 9.23600 | 1213 ft | 29 kts | 74° |
| 2026-04-19 04:43 | 48.69568 | 9.23882 | 1208 ft | 27 kts | 73° |
| 2026-04-19 04:43 | 48.69609 | 9.24093 | 1202 ft | 15 kts | 76° |
| 2026-04-19 04:44 | 48.69574 | 9.24254 | 1195 ft | 16 kts | 119° |
| 2026-04-19 04:44 | 48.69492 | 9.24320 | 1190 ft | 13 kts | 163° |
| 2026-04-19 04:44 | 48.69403 | 9.24317 | 1191 ft | 12 kts | 206° |
| 2026-04-19 04:44 | 48.69368 | 9.24202 | 1193 ft | 20 kts | 254° |
| 2026-04-19 04:45 | 48.69253 | 9.23598 | 1205 ft | 97 kts | 254° |
| 2026-04-19 04:45 | 48.69005 | 9.22291 | 1253 ft | 155 kts | 254° |
| 2026-04-19 04:45 | 48.68711 | 9.20705 | 1874 ft | 159 kts | 255° |
| 2026-04-19 04:45 | 48.68411 | 9.19076 | 2627 ft | 166 kts | 253° |
| 2026-04-19 04:46 | 48.68065 | 9.17300 | 3124 ft | 184 kts | 253° |
| 2026-04-19 04:46 | 48.67677 | 9.15329 | 3557 ft | 208 kts | 254° |
| 2026-04-19 04:46 | 48.67241 | 9.13124 | 4196 ft | 226 kts | 254° |
| 2026-04-19 04:46 | 48.67008 | 9.10765 | 5144 ft | 232 kts | 278° |
| 2026-04-19 04:47 | 48.67697 | 9.08548 | 6166 ft | 238 kts | 304° |
| 2026-04-19 04:47 | 48.68849 | 9.06738 | 7167 ft | 245 kts | 324° |
| 2026-04-19 04:47 | 48.70499 | 9.05749 | 7875 ft | 267 kts | 340° |
| 2026-04-19 04:47 | 48.72306 | 9.04928 | 8744 ft | 274 kts | 339° |
| 2026-04-19 04:48 | 48.74142 | 9.04053 | 9698 ft | 280 kts | 340° |
| 2026-04-19 04:48 | 48.76115 | 9.03739 | 10487 ft | 299 kts | 0° |
| 2026-04-19 04:48 | 48.78269 | 9.04196 | 10894 ft | 324 kts | 5° |
| 2026-04-19 04:48 | 48.80525 | 9.04807 | 11611 ft | 333 kts | 6° |
| 2026-04-19 04:49 | 48.82821 | 9.05480 | 12462 ft | 339 kts | 7° |
| 2026-04-19 04:49 | 48.85152 | 9.06178 | 13327 ft | 343 kts | 6° |
| 2026-04-19 04:49 | 48.87510 | 9.06875 | 14141 ft | 348 kts | 6° |
| 2026-04-19 04:49 | 48.89903 | 9.07562 | 14896 ft | 352 kts | 6° |
| 2026-04-19 04:50 | 48.92323 | 9.08247 | 15636 ft | 356 kts | 6° |
| 2026-04-19 04:50 | 48.94777 | 9.08934 | 16402 ft | 361 kts | 6° |
| 2026-04-19 04:50 | 48.97266 | 9.09627 | 17118 ft | 366 kts | 6° |
| 2026-04-19 04:50 | 48.99782 | 9.10327 | 17829 ft | 370 kts | 6° |
| 2026-04-19 04:51 | 49.02332 | 9.11034 | 18516 ft | 375 kts | 5° |
| 2026-04-19 04:51 | 49.04880 | 9.11733 | 19079 ft | 378 kts | 5° |
| 2026-04-19 04:51 | 49.07479 | 9.12447 | 19566 ft | 381 kts | 5° |
| 2026-04-19 04:51 | 49.10097 | 9.13170 | 19883 ft | 384 kts | 5° |
| 2026-04-19 04:52 | 49.12737 | 9.13910 | 20137 ft | 386 kts | 5° |
| 2026-04-19 04:52 | 49.15383 | 9.14657 | 20389 ft | 388 kts | 5° |
| 2026-04-19 04:52 | 49.18046 | 9.15405 | 20656 ft | 390 kts | 5° |
| 2026-04-19 04:52 | 49.20719 | 9.16156 | 20917 ft | 392 kts | 5° |
| 2026-04-19 04:53 | 49.23406 | 9.16915 | 21035 ft | 390 kts | 5° |
| 2026-04-19 04:53 | 49.26020 | 9.17667 | 21022 ft | 377 kts | 5° |
| 2026-04-19 04:53 | 49.28568 | 9.18399 | 20763 ft | 368 kts | 5° |
| 2026-04-19 04:53 | 49.31064 | 9.19111 | 20508 ft | 362 kts | 5° |
| 2026-04-19 04:54 | 49.33531 | 9.19805 | 20252 ft | 359 kts | 5° |
| 2026-04-19 04:54 | 49.35983 | 9.20494 | 20006 ft | 358 kts | 5° |
| 2026-04-19 04:54 | 49.38428 | 9.21176 | 19777 ft | 356 kts | 5° |
| 2026-04-19 04:54 | 49.40850 | 9.21858 | 19500 ft | 352 kts | 5° |
| 2026-04-19 04:55 | 49.43252 | 9.22539 | 19062 ft | 350 kts | 5° |
| 2026-04-19 04:55 | 49.45647 | 9.23214 | 18611 ft | 350 kts | 5° |
| 2026-04-19 04:55 | 49.48046 | 9.23888 | 18127 ft | 350 kts | 5° |
| 2026-04-19 04:55 | 49.50435 | 9.24568 | 17661 ft | 348 kts | 5° |
| 2026-04-19 04:56 | 49.52811 | 9.25245 | 17220 ft | 346 kts | 5° |
| 2026-04-19 04:56 | 49.55175 | 9.25918 | 16776 ft | 344 kts | 5° |
| 2026-04-19 04:56 | 49.57526 | 9.26591 | 16340 ft | 343 kts | 5° |
| 2026-04-19 04:56 | 49.59867 | 9.27256 | 15917 ft | 341 kts | 5° |
| 2026-04-19 04:57 | 49.62193 | 9.27912 | 15576 ft | 337 kts | 6° |
| 2026-04-19 04:57 | 49.64492 | 9.28570 | 15189 ft | 335 kts | 6° |
| 2026-04-19 04:57 | 49.66784 | 9.29226 | 14771 ft | 334 kts | 6° |
| 2026-04-19 04:57 | 49.69066 | 9.29882 | 14348 ft | 334 kts | 6° |
| 2026-04-19 04:58 | 49.71347 | 9.30540 | 13923 ft | 333 kts | 6° |
| 2026-04-19 04:58 | 49.73623 | 9.31194 | 13463 ft | 332 kts | 6° |
| 2026-04-19 04:58 | 49.75884 | 9.31845 | 13039 ft | 329 kts | 6° |
| 2026-04-19 04:58 | 49.78131 | 9.32497 | 12615 ft | 327 kts | 6° |
| 2026-04-19 04:59 | 49.80359 | 9.33142 | 12187 ft | 325 kts | 5° |
| 2026-04-19 04:59 | 49.82546 | 9.33775 | 11773 ft | 324 kts | 5° |
| 2026-04-19 04:59 | 49.84765 | 9.34251 | 11329 ft | 319 kts | 356° |
| 2026-04-19 04:59 | 49.86931 | 9.33941 | 10986 ft | 307 kts | 342° |
| 2026-04-19 05:00 | 49.88912 | 9.32900 | 10695 ft | 296 kts | 329° |
| 2026-04-19 05:00 | 49.90766 | 9.31547 | 10443 ft | 293 kts | 329° |
| 2026-04-19 05:00 | 49.92594 | 9.30226 | 10177 ft | 287 kts | 329° |
| 2026-04-19 05:00 | 49.94395 | 9.28922 | 9924 ft | 284 kts | 329° |
| 2026-04-19 05:01 | 49.96184 | 9.27627 | 9656 ft | 283 kts | 329° |
| 2026-04-19 05:01 | 49.97964 | 9.26337 | 9387 ft | 282 kts | 329° |
| 2026-04-19 05:01 | 49.99739 | 9.25048 | 9160 ft | 281 kts | 329° |
| 2026-04-19 05:01 | 50.01509 | 9.23762 | 8834 ft | 280 kts | 329° |
| 2026-04-19 05:02 | 50.03274 | 9.22478 | 8559 ft | 279 kts | 329° |
| 2026-04-19 05:02 | 50.05032 | 9.21199 | 8305 ft | 279 kts | 329° |
| 2026-04-19 05:02 | 50.06793 | 9.19913 | 8077 ft | 281 kts | 329° |
| 2026-04-19 05:02 | 50.08571 | 9.18613 | 7817 ft | 282 kts | 330° |
| 2026-04-19 05:03 | 50.10346 | 9.17315 | 7568 ft | 282 kts | 330° |
| 2026-04-19 05:03 | 50.12109 | 9.16032 | 7304 ft | 276 kts | 331° |
| 2026-04-19 05:03 | 50.13827 | 9.14780 | 7074 ft | 270 kts | 328° |
| 2026-04-19 05:03 | 50.15479 | 9.13496 | 6833 ft | 261 kts | 322° |
| 2026-04-19 05:04 | 50.16713 | 9.11508 | 6610 ft | 255 kts | 294° |
| 2026-04-19 05:04 | 50.17257 | 9.09022 | 6434 ft | 235 kts | 274° |
| 2026-04-19 05:04 | 50.17104 | 9.06466 | 6171 ft | 242 kts | 255° |
| 2026-04-19 05:04 | 50.16557 | 9.04012 | 5937 ft | 237 kts | 250° |
| 2026-04-19 05:05 | 50.15988 | 9.01664 | 5834 ft | 225 kts | 251° |
| 2026-04-19 05:05 | 50.15476 | 8.99490 | 5750 ft | 212 kts | 252° |
| 2026-04-19 05:05 | 50.14980 | 8.97367 | 5651 ft | 197 kts | 251° |
| 2026-04-19 05:05 | 50.14513 | 8.95371 | 5541 ft | 197 kts | 252° |
| 2026-04-19 05:06 | 50.14048 | 8.93397 | 5378 ft | 190 kts | 252° |
| 2026-04-19 05:06 | 50.13599 | 8.91479 | 5226 ft | 193 kts | 252° |
| 2026-04-19 05:06 | 50.13145 | 8.89546 | 5127 ft | 185 kts | 253° |
| 2026-04-19 05:06 | 50.12709 | 8.87688 | 4972 ft | 180 kts | 252° |
| 2026-04-19 05:07 | 50.12286 | 8.85889 | 4765 ft | 174 kts | 255° |
| 2026-04-19 05:07 | 50.11873 | 8.84132 | 4530 ft | 171 kts | 253° |
| 2026-04-19 05:07 | 50.11467 | 8.82411 | 4305 ft | 167 kts | 256° |
| 2026-04-19 05:07 | 50.11070 | 8.80725 | 4074 ft | 165 kts | 256° |
| 2026-04-19 05:08 | 50.10675 | 8.79047 | 3867 ft | 166 kts | 256° |
| 2026-04-19 05:08 | 50.09863 | 8.75604 | 3415 ft | 170 kts | 256° |
| 2026-04-19 05:08 | 50.09454 | 8.73880 | 3183 ft | 169 kts | 256° |
| 2026-04-19 05:09 | 50.09048 | 8.72163 | 2947 ft | 169 kts | 255° |
| 2026-04-19 05:09 | 50.08638 | 8.70437 | 2719 ft | 169 kts | 255° |
| 2026-04-19 05:09 | 50.08239 | 8.68754 | 2526 ft | 163 kts | 257° |
| 2026-04-19 05:09 | 50.07850 | 8.67114 | 2274 ft | 159 kts | 258° |
| 2026-04-19 05:10 | 50.07483 | 8.65575 | 2059 ft | 144 kts | 258° |
| 2026-04-19 05:10 | 50.07147 | 8.64170 | 1863 ft | 132 kts | 260° |
| 2026-04-19 05:10 | 50.06841 | 8.62882 | 1717 ft | 125 kts | 261° |
| 2026-04-19 05:10 | 50.06550 | 8.61629 | 1552 ft | 122 kts | 259° |
| 2026-04-19 05:11 | 50.06257 | 8.60384 | 1374 ft | 124 kts | 258° |
| 2026-04-19 05:11 | 50.05954 | 8.59104 | 1160 ft | 129 kts | 256° |
| 2026-04-19 05:11 | 50.05640 | 8.57791 | 1009 ft | 131 kts | 255° |
| 2026-04-19 05:11 | 50.05315 | 8.56448 | 815 ft | 134 kts | 254° |
| 2026-04-19 05:12 | 50.04991 | 8.55093 | 651 ft | 135 kts | 255° |
| 2026-04-19 05:12 | 50.04666 | 8.53729 | 454 ft | 131 kts | 258° |
| 2026-04-19 05:12 | 50.04365 | 8.52464 | 351 ft | 113 kts | 254° |
| 2026-04-19 05:12 | 50.04183 | 8.51700 | 336 ft | 36 kts | 248° |
| 2026-04-19 05:13 | 50.04048 | 8.51462 | 330 ft | 27 kts | 219° |
| 2026-04-19 05:13 | 50.03946 | 8.51353 | 334 ft | 9 kts | 184° |
| 2026-04-19 05:13 | 50.03909 | 8.51459 | 333 ft | 18 kts | 73° |
| 2026-04-19 05:13 | 50.03952 | 8.51637 | 336 ft | 17 kts | 69° |
| 2026-04-19 05:14 | 50.03996 | 8.51824 | 335 ft | 22 kts | 70° |
| 2026-04-19 05:14 | 50.04056 | 8.52074 | 340 ft | 26 kts | 69° |
| 2026-04-19 05:14 | 50.04121 | 8.52344 | 346 ft | 27 kts | 70° |
| 2026-04-19 05:14 | 50.04188 | 8.52624 | 356 ft | 28 kts | 69° |
| 2026-04-19 05:15 | 50.04257 | 8.52913 | 356 ft | 29 kts | 69° |
| 2026-04-19 05:15 | 50.04329 | 8.53211 | 365 ft | 29 kts | 69° |
| 2026-04-19 05:15 | 50.04391 | 8.53488 | 375 ft | 26 kts | 78° |
| 2026-04-19 05:15 | 50.04413 | 8.53772 | 375 ft | 28 kts | 84° |
| 2026-04-19 05:16 | 50.04434 | 8.54092 | 375 ft | 31 kts | 84° |
| 2026-04-19 05:16 | 50.04450 | 8.54350 | 373 ft | 20 kts | 84° |
| 2026-04-19 05:16 | 50.04432 | 8.54577 | 368 ft | 23 kts | 113° |
| 2026-04-19 05:16 | 50.04327 | 8.54758 | 358 ft | 25 kts | 152° |
| 2026-04-19 05:17 | 50.04160 | 8.54858 | 356 ft | 26 kts | 160° |
| 2026-04-19 05:17 | 50.04042 | 8.54925 | 359 ft | 12 kts | 159° |
| 2026-04-19 05:17 | 50.04020 | 8.55018 | 361 ft | 13 kts | 73° |
| 2026-04-19 05:17 | 50.04060 | 8.55187 | 356 ft | 20 kts | 70° |
| 2026-04-19 05:18 | 50.04117 | 8.55428 | 354 ft | 26 kts | 69° |
| 2026-04-19 05:18 | 50.04180 | 8.55692 | 352 ft | 22 kts | 70° |
| 2026-04-19 05:18 | 50.04223 | 8.55869 | 357 ft | 15 kts | 70° |
| 2026-04-19 05:18 | 50.04269 | 8.55963 | 357 ft | 9 kts | 12° |
| 2026-04-19 05:19 | 50.04345 | 8.55927 | 361 ft | 14 kts | 340° |
| 2026-04-19 05:19 | 50.04446 | 8.55919 | 360 ft | 16 kts | 15° |
| 2026-04-19 05:19 | 50.04552 | 8.55978 | 363 ft | 16 kts | 41° |
| 2026-04-19 05:19 | 50.04596 | 8.56140 | 359 ft | 16 kts | 70° |
| 2026-04-19 05:20 | 50.04632 | 8.56288 | 360 ft | 14 kts | 69° |
| 2026-04-19 05:20 | 50.04660 | 8.56418 | 356 ft | 10 kts | 83° |
| 2026-04-19 05:20 | 50.04613 | 8.56474 | 356 ft | 9 kts | 181° |
| 2026-04-19 05:20 | 50.04566 | 8.56479 | 356 ft | 6 kts | 133° |
| 2026-04-19 05:21 | 50.04546 | 8.56540 | 362 ft | 6 kts | 115° |
| 2026-04-19 05:21 | 50.04535 | 8.56580 | 356 ft | 2 kts | 114° |
| 2026-04-19 05:21 | 50.04533 | 8.56587 | 356 ft | 0 kts | 115° |